createdAt,value
2023-03-24T00:00:24.673Z,4.30
2023-03-24T00:01:27.365Z,4.22
2023-03-24T00:02:30.002Z,4.28
2023-03-24T00:03:33.559Z,4.50
2023-03-24T00:04:36.636Z,5.40
2023-03-24T00:05:40.617Z,4.40
2023-03-24T00:06:43.608Z,4.10
2023-03-24T00:07:47.308Z,4.72
2023-03-24T00:08:49.876Z,4.25
2023-03-24T00:09:54.218Z,4.57
2023-03-24T00:11:04.385Z,4.63
2023-03-24T00:12:06.934Z,4.45
2023-03-24T00:13:09.461Z,4.45
2023-03-24T00:14:12.561Z,4.28
2023-03-24T00:15:19.103Z,4.53
2023-03-24T00:16:22.186Z,4.65
2023-03-24T00:17:25.593Z,4.68
2023-03-24T00:18:28.036Z,4.38
2023-03-24T00:19:30.624Z,5.10
2023-03-24T00:20:33.280Z,4.47
2023-03-24T00:21:37.662Z,4.60
2023-03-24T00:22:42.613Z,4.47
2023-03-24T00:23:47.702Z,4.28
2023-03-24T00:24:50.231Z,4.40
2023-03-24T00:26:02.773Z,5.40
2023-03-24T00:27:06.015Z,4.47
2023-03-24T00:28:10.132Z,4.55
2023-03-24T00:29:13.893Z,4.40
2023-03-24T00:30:17.834Z,4.93
2023-03-24T00:31:20.738Z,4.85
2023-03-24T00:32:23.355Z,4.95
2023-03-24T00:33:26.049Z,4.80
2023-03-24T00:34:28.779Z,4.90
2023-03-24T00:35:31.323Z,4.32
2023-03-24T00:36:33.988Z,4.57
2023-03-24T00:37:41.715Z,4.82
2023-03-24T00:38:44.245Z,4.47
2023-03-24T00:39:47.036Z,4.05
2023-03-24T00:40:50.470Z,4.63
2023-03-24T00:41:53.191Z,4.32
2023-03-24T00:42:55.814Z,5.15
2023-03-24T00:44:00.499Z,5.38
2023-03-24T00:45:05.157Z,5.00
2023-03-24T00:46:12.398Z,5.45
2023-03-24T00:47:17.981Z,5.72
2023-03-24T00:48:20.674Z,6.32
2023-03-24T00:49:42.153Z,5.95
2023-03-24T00:50:46.882Z,6.55
2023-03-24T00:51:50.702Z,6.15
2023-03-24T00:52:53.930Z,5.55
2023-03-24T00:53:58.115Z,5.43
2023-03-24T00:55:02.738Z,6.22
2023-03-24T00:56:05.612Z,6.05
2023-03-24T00:57:08.828Z,6.22
2023-03-24T00:58:17.911Z,6.55
2023-03-24T00:59:21.461Z,5.90
2023-03-24T01:00:26.134Z,5.35
2023-03-24T01:01:30.440Z,6.88
2023-03-24T01:02:33.825Z,5.63
2023-03-24T01:03:48.367Z,5.07
2023-03-24T01:04:58.763Z,5.63
2023-03-24T01:06:03.334Z,5.63
2023-03-24T01:07:08.978Z,5.50
2023-03-24T01:08:11.681Z,7.35
2023-03-24T01:09:14.191Z,5.75
2023-03-24T01:10:17.178Z,6.65
2023-03-24T01:11:25.415Z,6.72
2023-03-24T01:12:30.683Z,5.63
2023-03-24T01:13:34.310Z,5.95
2023-03-24T01:14:37.257Z,6.18
2023-03-24T01:15:39.800Z,6.15
2023-03-24T01:16:42.878Z,6.80
2023-03-24T01:17:47.291Z,6.57
2023-03-24T01:18:50.087Z,6.68
2023-03-24T01:19:56.896Z,6.63
2023-03-24T01:21:01.410Z,6.07
2023-03-24T01:22:03.976Z,7.20
2023-03-24T01:23:07.304Z,5.82
2023-03-24T01:24:09.975Z,6.15
2023-03-24T01:25:16.739Z,5.75
2023-03-24T01:26:19.850Z,5.55
2023-03-24T01:27:22.490Z,6.45
2023-03-24T01:28:26.050Z,5.93
2023-03-24T01:29:28.679Z,6.18
2023-03-24T01:30:31.807Z,6.18
2023-03-24T01:31:34.989Z,6.15
2023-03-24T01:32:37.705Z,6.75
2023-03-24T01:33:40.812Z,6.18
2023-03-24T01:34:43.373Z,6.35
2023-03-24T01:35:46.049Z,6.25
2023-03-24T01:36:48.658Z,6.03
2023-03-24T01:37:51.950Z,5.75
2023-03-24T01:38:54.587Z,6.57
2023-03-24T01:39:57.170Z,6.63
2023-03-24T01:41:00.044Z,6.97
2023-03-24T01:42:02.604Z,7.10
2023-03-24T01:43:06.339Z,6.63
2023-03-24T01:44:32.821Z,6.15
2023-03-24T01:45:56.459Z,6.70
2023-03-24T01:46:59.679Z,6.68
2023-03-24T01:48:03.101Z,6.43
2023-03-24T01:49:07.861Z,6.45
2023-03-24T01:50:11.183Z,6.25
2023-03-24T01:51:35.895Z,6.47
2023-03-24T01:52:38.906Z,6.32
2023-03-24T01:53:47.486Z,6.82
2023-03-24T01:55:09.173Z,5.95
2023-03-24T01:56:12.804Z,6.20
2023-03-24T01:57:36.760Z,6.43
2023-03-24T01:58:42.211Z,5.35
2023-03-24T01:59:59.583Z,6.05
2023-03-24T02:01:29.873Z,6.25
2023-03-24T02:03:02.023Z,6.07
2023-03-24T02:04:07.770Z,6.35
2023-03-24T02:05:13.072Z,6.93
2023-03-24T02:06:19.602Z,7.68
2023-03-24T02:07:43.080Z,7.45
2023-03-24T02:08:55.337Z,6.82
2023-03-24T02:09:58.731Z,6.72
2023-03-24T02:11:03.084Z,5.70
2023-03-24T02:12:15.079Z,7.18
2023-03-24T02:13:18.835Z,7.10
2023-03-24T02:14:21.488Z,6.85
2023-03-24T02:15:25.387Z,5.88
2023-03-24T02:16:43.234Z,7.05
2023-03-24T02:18:21.274Z,6.25
2023-03-24T02:19:38.475Z,6.68
2023-03-24T02:21:13.060Z,5.90
2023-03-24T02:22:42.361Z,6.65
2023-03-24T02:24:23.835Z,5.97
2023-03-24T02:26:04.305Z,6.20
2023-03-24T02:27:41.791Z,6.50
2023-03-24T02:29:21.861Z,6.40
2023-03-24T02:30:58.076Z,6.07
2023-03-24T02:32:03.398Z,5.18
2023-03-24T02:33:38.963Z,6.38
2023-03-24T02:34:59.296Z,5.95
2023-03-24T02:36:29.169Z,6.07
2023-03-24T02:37:46.892Z,5.13
2023-03-24T02:39:16.330Z,5.35
2023-03-24T02:40:41.471Z,5.75
2023-03-24T02:42:09.130Z,6.25
2023-03-24T02:43:20.236Z,5.43
2023-03-24T02:44:42.985Z,6.30
2023-03-24T02:45:52.296Z,6.35
2023-03-24T02:47:03.705Z,6.53
2023-03-24T02:48:28.897Z,5.90
2023-03-24T02:49:59.347Z,6.07
2023-03-24T02:51:14.125Z,5.72
2023-03-24T02:52:50.412Z,6.20
2023-03-24T02:54:36.710Z,6.63
2023-03-24T02:55:52.039Z,5.97
2023-03-24T02:56:59.506Z,6.82
2023-03-24T02:58:41.578Z,6.22
2023-03-24T02:59:53.210Z,5.72
2023-03-24T03:01:36.052Z,6.75
2023-03-24T03:03:02.957Z,6.32
2023-03-24T03:04:17.141Z,6.15
2023-03-24T03:05:29.861Z,6.35
2023-03-24T03:06:36.942Z,7.03
2023-03-24T03:07:41.310Z,5.75
2023-03-24T03:08:47.818Z,6.53
2023-03-24T03:10:06.649Z,6.43
2023-03-24T03:11:13.682Z,6.35
2023-03-24T03:12:19.750Z,5.95
2023-03-24T03:13:32.765Z,6.90
2023-03-24T03:14:36.642Z,6.07
2023-03-24T03:15:44.876Z,7.10
2023-03-24T03:16:53.659Z,6.70
2023-03-24T03:18:05.897Z,7.30
2023-03-24T03:19:18.889Z,6.40
2023-03-24T03:20:24.439Z,7.43
2023-03-24T03:21:30.955Z,6.85
2023-03-24T03:22:39.628Z,7.68
2023-03-24T03:23:52.750Z,8.68
2023-03-24T03:24:56.852Z,8.32
2023-03-24T03:26:04.763Z,9.18
2023-03-24T03:27:14.861Z,9.15
2023-03-24T03:28:22.033Z,8.57
2023-03-24T03:29:27.622Z,8.52
2023-03-24T03:30:37.752Z,7.88
2023-03-24T03:31:50.983Z,7.05
2023-03-24T03:32:57.213Z,6.75
2023-03-24T03:34:19.297Z,7.60
2023-03-24T03:35:26.347Z,7.00
2023-03-24T03:36:36.129Z,6.07
2023-03-24T03:37:48.492Z,6.32
2023-03-24T03:39:16.255Z,6.72
2023-03-24T03:40:33.462Z,6.63
2023-03-24T03:41:43.657Z,6.57
2023-03-24T03:42:47.118Z,5.75
2023-03-24T03:43:49.961Z,6.93
2023-03-24T03:44:52.705Z,6.45
2023-03-24T03:45:56.055Z,6.20
2023-03-24T03:47:05.306Z,6.13
2023-03-24T03:48:17.743Z,6.25
2023-03-24T03:49:20.916Z,5.82
2023-03-24T03:50:23.572Z,6.38
2023-03-24T03:51:26.523Z,5.78
2023-03-24T03:52:32.527Z,6.65
2023-03-24T03:53:49.404Z,6.05
2023-03-24T03:54:52.328Z,5.80
2023-03-24T03:55:57.018Z,6.25
2023-03-24T03:57:00.534Z,5.78
2023-03-24T03:58:08.026Z,6.03
2023-03-24T03:59:42.995Z,5.15
2023-03-24T04:00:51.382Z,5.22
2023-03-24T04:02:28.932Z,6.32
2023-03-24T04:03:49.687Z,5.57
2023-03-24T04:05:05.199Z,6.70
2023-03-24T04:07:51.751Z,6.55
2023-03-24T04:09:20.406Z,5.88
2023-03-24T04:10:29.621Z,5.47
2023-03-24T04:11:58.752Z,5.30
2023-03-24T04:13:13.085Z,6.32
2023-03-24T04:14:56.620Z,5.18
2023-03-24T04:16:33.501Z,5.45
2023-03-24T04:18:15.466Z,5.95
2023-03-24T04:19:48.146Z,5.47
2023-03-24T04:20:54.383Z,5.70
2023-03-24T04:22:10.792Z,5.93
2023-03-24T04:23:30.320Z,5.53
2023-03-24T04:24:56.033Z,6.65
2023-03-24T04:26:45.434Z,5.55
2023-03-24T04:28:01.168Z,5.65
2023-03-24T04:29:22.410Z,5.10
2023-03-24T04:30:43.312Z,5.53
2023-03-24T04:32:04.634Z,5.25
2023-03-24T04:33:22.495Z,5.97
2023-03-24T04:34:35.145Z,6.53
2023-03-24T04:35:52.761Z,6.10
2023-03-24T04:37:05.506Z,8.00
2023-03-24T04:38:23.393Z,8.38
2023-03-24T04:39:39.095Z,10.20
2023-03-24T04:40:49.648Z,11.00
2023-03-24T04:41:53.415Z,15.65
2023-03-24T04:43:04.472Z,17.15
2023-03-24T04:44:07.293Z,13.43
2023-03-24T04:45:19.754Z,14.02
2023-03-24T04:46:30.091Z,14.98
2023-03-24T04:47:55.118Z,15.35
2023-03-24T04:49:09.374Z,11.95
2023-03-24T04:50:14.872Z,10.57
2023-03-24T04:51:19.258Z,8.48
2023-03-24T04:52:51.961Z,8.75
2023-03-24T04:53:54.476Z,8.40
2023-03-24T04:54:58.730Z,7.30
2023-03-24T04:56:42.968Z,6.32
2023-03-24T04:57:52.255Z,7.32
2023-03-24T04:58:54.859Z,6.22
2023-03-24T04:59:57.352Z,6.55
2023-03-24T05:00:59.951Z,6.75
2023-03-24T05:02:05.825Z,6.57
2023-03-24T05:03:14.354Z,5.57
2023-03-24T05:04:18.692Z,5.75
2023-03-24T05:05:21.169Z,5.97
2023-03-24T05:06:24.941Z,7.03
2023-03-24T05:07:27.520Z,7.18
2023-03-24T05:08:35.407Z,8.85
2023-03-24T05:09:38.144Z,8.80
2023-03-24T05:10:40.960Z,9.15
2023-03-24T05:11:45.560Z,8.30
2023-03-24T05:12:48.221Z,8.75
2023-03-24T05:14:13.851Z,9.18
2023-03-24T05:15:16.879Z,9.00
2023-03-24T05:16:22.113Z,8.07
2023-03-24T05:17:33.287Z,7.75
2023-03-24T05:18:36.410Z,7.95
2023-03-24T05:19:38.988Z,8.18
2023-03-24T05:20:42.019Z,15.82
2023-03-24T05:21:52.149Z,30.60
2023-03-24T05:22:54.956Z,35.08
2023-03-24T05:23:57.440Z,28.90
2023-03-24T05:25:00.683Z,27.52
2023-03-24T05:26:03.751Z,28.25
2023-03-24T05:27:09.538Z,28.77
2023-03-24T05:28:12.077Z,28.95
2023-03-24T05:29:14.596Z,20.63
2023-03-24T05:30:17.411Z,18.92
2023-03-24T05:31:20.451Z,20.55
2023-03-24T05:32:28.253Z,15.00
2023-03-24T05:33:30.882Z,14.82
2023-03-24T05:34:34.635Z,12.88
2023-03-24T05:35:44.361Z,10.90
2023-03-24T05:36:47.086Z,11.55
2023-03-24T05:37:52.216Z,12.10
2023-03-24T05:38:54.940Z,12.50
2023-03-24T05:40:00.029Z,12.10
2023-03-24T05:41:18.880Z,11.15
2023-03-24T05:42:21.805Z,10.63
2023-03-24T05:43:24.599Z,11.95
2023-03-24T05:44:40.524Z,9.85
2023-03-24T05:45:48.664Z,9.07
2023-03-24T05:47:02.268Z,7.80
2023-03-24T05:48:05.273Z,7.88
2023-03-24T05:49:31.780Z,7.82
2023-03-24T05:50:35.024Z,6.90
2023-03-24T05:51:37.801Z,7.40
2023-03-24T05:52:42.788Z,7.43
2023-03-24T05:54:06.069Z,6.45
2023-03-24T05:55:16.105Z,6.45
2023-03-24T05:56:18.884Z,6.63
2023-03-24T05:57:47.490Z,7.32
2023-03-24T05:59:11.762Z,7.95
2023-03-24T06:00:30.720Z,9.65
2023-03-24T06:01:44.074Z,8.43
2023-03-24T06:02:56.546Z,8.90
2023-03-24T06:04:18.790Z,9.38
2023-03-24T06:05:21.289Z,9.07
2023-03-24T06:06:23.800Z,8.82
2023-03-24T06:07:26.969Z,8.15
2023-03-24T06:08:33.945Z,8.43
2023-03-24T06:09:39.571Z,8.65
2023-03-24T06:10:43.705Z,7.68
2023-03-24T06:11:46.519Z,7.93
2023-03-24T06:12:49.093Z,8.25
2023-03-24T06:13:52.132Z,7.78
2023-03-24T06:14:55.443Z,7.55
2023-03-24T06:15:59.899Z,7.20
2023-03-24T06:17:21.429Z,6.93
2023-03-24T06:18:27.774Z,6.53
2023-03-24T06:19:32.921Z,5.57
2023-03-24T06:20:56.684Z,7.03
2023-03-24T06:23:11.341Z,6.82
2023-03-24T06:24:34.908Z,6.97
2023-03-24T06:25:44.618Z,6.60
2023-03-24T06:27:08.964Z,6.20
2023-03-24T06:28:12.305Z,6.97
2023-03-24T06:29:19.508Z,6.95
2023-03-24T06:30:22.760Z,6.55
2023-03-24T06:31:25.499Z,6.43
2023-03-24T06:32:28.975Z,6.68
2023-03-24T06:33:31.656Z,6.40
2023-03-24T06:34:37.296Z,6.32
2023-03-24T06:35:54.695Z,7.00
2023-03-24T06:36:57.277Z,5.75
2023-03-24T06:37:59.787Z,6.72
2023-03-24T06:39:02.554Z,6.63
2023-03-24T06:40:13.038Z,7.00
2023-03-24T06:41:21.058Z,6.30
2023-03-24T06:42:27.510Z,6.80
2023-03-24T06:43:30.813Z,6.80
2023-03-24T06:44:33.580Z,6.63
2023-03-24T06:45:37.072Z,6.95
2023-03-24T06:46:40.682Z,6.88
2023-03-24T06:47:43.519Z,7.05
2023-03-24T06:48:47.040Z,7.40
2023-03-24T06:49:49.663Z,6.93
2023-03-24T06:50:53.569Z,7.57
2023-03-24T06:51:56.129Z,6.95
2023-03-24T06:53:01.415Z,7.60
2023-03-24T06:54:05.920Z,7.35
2023-03-24T06:55:08.938Z,7.57
2023-03-24T06:56:17.174Z,7.38
2023-03-24T06:57:24.522Z,7.05
2023-03-24T06:58:49.451Z,7.53
2023-03-24T07:00:01.440Z,7.18
2023-03-24T07:01:08.455Z,7.28
2023-03-24T07:02:13.871Z,7.03
2023-03-24T07:03:19.591Z,7.53
2023-03-24T07:04:39.063Z,6.47
2023-03-24T07:05:59.884Z,8.13
2023-03-24T07:07:19.685Z,6.53
2023-03-24T07:08:41.698Z,6.53
2023-03-24T07:09:44.996Z,7.40
2023-03-24T07:10:48.152Z,6.30
2023-03-24T07:11:50.701Z,7.18
2023-03-24T07:12:53.547Z,6.68
2023-03-24T07:13:56.605Z,6.75
2023-03-24T07:15:00.061Z,6.35
2023-03-24T07:16:03.110Z,7.53
2023-03-24T07:17:06.452Z,6.80
2023-03-24T07:18:31.993Z,6.82
2023-03-24T07:19:38.197Z,7.35
2023-03-24T07:21:15.686Z,6.70
2023-03-24T07:22:18.516Z,6.18
2023-03-24T07:23:43.650Z,6.15
2023-03-24T07:24:52.877Z,6.90
2023-03-24T07:26:13.421Z,7.18
2023-03-24T07:27:24.831Z,6.82
2023-03-24T07:28:27.567Z,6.80
2023-03-24T07:29:30.837Z,6.57
2023-03-24T07:30:51.625Z,8.23
2023-03-24T07:31:58.986Z,8.52
2023-03-24T07:33:05.661Z,8.48
2023-03-24T07:34:09.196Z,8.90
2023-03-24T07:35:13.720Z,7.63
2023-03-24T07:36:17.069Z,7.88
2023-03-24T07:37:19.730Z,7.13
2023-03-24T07:38:22.321Z,6.57
2023-03-24T07:39:28.083Z,6.10
2023-03-24T07:40:31.122Z,6.15
2023-03-24T07:41:33.951Z,6.20
2023-03-24T07:42:42.304Z,5.90
2023-03-24T07:44:08.651Z,6.22
2023-03-24T07:45:24.558Z,5.57
2023-03-24T07:46:27.202Z,5.15
2023-03-24T07:47:30.031Z,7.22
2023-03-24T07:48:32.538Z,6.07
2023-03-24T07:49:35.600Z,6.78
2023-03-24T07:50:44.536Z,6.35
2023-03-24T07:52:07.175Z,6.35
2023-03-24T07:53:21.855Z,5.63
2023-03-24T07:54:24.879Z,5.60
2023-03-24T07:55:28.501Z,6.20
2023-03-24T07:56:35.796Z,5.50
2023-03-24T07:57:42.273Z,5.88
2023-03-24T07:58:44.867Z,5.50
2023-03-24T07:59:59.437Z,5.95
2023-03-24T08:01:18.242Z,5.10
2023-03-24T08:02:23.811Z,5.72
2023-03-24T08:03:56.270Z,4.50
2023-03-24T08:05:29.832Z,5.53
2023-03-24T08:06:46.279Z,5.28
2023-03-24T08:07:53.622Z,4.85
2023-03-24T08:08:56.528Z,5.25
2023-03-24T08:10:00.421Z,5.25
2023-03-24T08:11:04.273Z,5.60
2023-03-24T08:12:19.340Z,4.68
2023-03-24T08:13:23.727Z,5.03
2023-03-24T08:14:26.370Z,5.05
2023-03-24T08:15:29.065Z,5.30
2023-03-24T08:16:31.730Z,5.00
2023-03-24T08:17:34.534Z,4.80
2023-03-24T08:18:37.270Z,6.13
2023-03-24T08:19:52.066Z,5.32
2023-03-24T08:21:02.267Z,5.30
2023-03-24T08:22:05.020Z,5.10
2023-03-24T08:23:08.596Z,4.75
2023-03-24T08:24:11.182Z,5.10
2023-03-24T08:25:13.768Z,5.28
2023-03-24T08:26:16.213Z,5.10
2023-03-24T08:27:18.762Z,5.40
2023-03-24T08:28:21.369Z,5.53
2023-03-24T08:29:24.234Z,4.88
2023-03-24T08:30:28.351Z,5.18
2023-03-24T08:31:35.045Z,5.10
2023-03-24T08:32:38.206Z,4.95
2023-03-24T08:33:41.875Z,4.78
2023-03-24T08:34:44.389Z,4.72
2023-03-24T08:35:47.610Z,4.22
2023-03-24T08:36:50.595Z,4.75
2023-03-24T08:37:53.165Z,4.70
2023-03-24T08:38:56.443Z,4.35
2023-03-24T08:40:05.466Z,4.53
2023-03-24T08:41:08.715Z,4.20
2023-03-24T08:42:11.222Z,4.18
2023-03-24T08:43:15.594Z,4.10
2023-03-24T08:44:18.223Z,4.40
2023-03-24T08:45:23.657Z,5.20
2023-03-24T08:46:26.204Z,4.00
2023-03-24T08:47:29.877Z,5.05
2023-03-24T08:48:33.029Z,4.20
2023-03-24T08:49:35.779Z,4.18
2023-03-24T08:50:41.017Z,3.70
2023-03-24T08:51:44.583Z,3.20
2023-03-24T08:52:48.332Z,4.07
2023-03-24T08:53:52.453Z,3.85
2023-03-24T08:54:54.917Z,4.25
2023-03-24T08:55:57.430Z,4.15
2023-03-24T08:57:00.150Z,3.95
2023-03-24T08:58:03.074Z,3.67
2023-03-24T08:59:06.755Z,4.00
2023-03-24T09:00:16.891Z,3.42
2023-03-24T09:01:20.408Z,3.65
2023-03-24T09:02:23.416Z,3.70
2023-03-24T09:03:26.416Z,3.95
2023-03-24T09:04:29.111Z,4.38
2023-03-24T09:05:43.950Z,3.88
2023-03-24T09:06:47.163Z,4.15
2023-03-24T09:07:51.127Z,4.03
2023-03-24T09:08:54.754Z,3.95
2023-03-24T09:09:57.211Z,4.00
2023-03-24T09:10:59.851Z,3.80
2023-03-24T09:12:02.335Z,4.00
2023-03-24T09:13:05.396Z,3.45
2023-03-24T09:14:07.963Z,3.75
2023-03-24T09:15:13.352Z,4.22
2023-03-24T09:16:17.141Z,3.83
2023-03-24T09:17:19.975Z,4.60
2023-03-24T09:18:22.627Z,4.45
2023-03-24T09:19:25.383Z,3.78
2023-03-24T09:20:27.950Z,4.32
2023-03-24T09:21:30.518Z,3.85
2023-03-24T09:22:33.028Z,4.32
2023-03-24T09:23:35.926Z,3.85
2023-03-24T09:24:38.630Z,3.75
2023-03-24T09:25:41.269Z,4.05
2023-03-24T09:26:43.770Z,4.55
2023-03-24T09:27:47.034Z,3.85
2023-03-24T09:28:49.739Z,4.00
2023-03-24T09:29:53.904Z,3.70
2023-03-24T09:31:05.576Z,3.70
2023-03-24T09:32:08.342Z,3.90
2023-03-24T09:33:10.947Z,3.63
2023-03-24T09:34:13.682Z,3.38
2023-03-24T09:35:16.587Z,3.40
2023-03-24T09:36:19.287Z,4.07
2023-03-24T09:37:21.904Z,3.65
2023-03-24T09:38:24.940Z,3.60
2023-03-24T09:39:28.161Z,3.50
2023-03-24T09:40:36.125Z,3.70
2023-03-24T09:41:38.576Z,3.92
2023-03-24T09:42:41.788Z,3.63
2023-03-24T09:44:11.457Z,3.55
2023-03-24T09:45:18.491Z,3.75
2023-03-24T09:47:04.335Z,3.40
2023-03-24T09:48:16.084Z,3.70
2023-03-24T09:49:29.038Z,4.07
2023-03-24T09:50:53.667Z,3.88
2023-03-24T09:52:12.683Z,3.47
2023-03-24T09:53:43.359Z,3.85
2023-03-24T09:54:55.587Z,3.75
2023-03-24T09:56:00.795Z,3.80
2023-03-24T09:57:04.200Z,3.78
2023-03-24T09:58:09.997Z,3.60
2023-03-24T09:59:20.813Z,4.30
2023-03-24T10:03:38.400Z,3.65
2023-03-24T10:04:41.043Z,4.65
2023-03-24T10:05:51.203Z,3.45
2023-03-24T10:08:37.169Z,4.88
2023-03-24T10:09:39.959Z,4.28
2023-03-24T10:11:16.662Z,3.80
2023-03-24T15:04:39.469Z,1.60
2023-03-24T15:05:42.290Z,1.90
2023-03-24T15:06:46.977Z,1.60
2023-03-24T15:08:12.254Z,1.77
2023-03-24T15:09:18.855Z,1.83
2023-03-24T15:10:22.595Z,1.77
2023-03-24T15:11:31.071Z,1.50
2023-03-24T15:12:34.042Z,2.10
2023-03-24T15:13:51.170Z,2.20
2023-03-24T15:14:53.688Z,1.90
2023-03-24T15:15:56.318Z,1.98
2023-03-24T15:17:14.408Z,2.00
2023-03-24T15:18:19.000Z,1.48
2023-03-24T15:19:29.974Z,1.70
2023-03-24T15:20:35.667Z,1.90
2023-03-24T15:21:41.248Z,1.80
2023-03-24T15:22:44.020Z,1.85
2023-03-24T15:23:48.086Z,1.70
2023-03-24T15:24:52.208Z,1.58
2023-03-24T15:25:56.284Z,1.85
2023-03-24T15:27:07.752Z,1.70
2023-03-24T15:28:29.977Z,2.03
2023-03-24T15:29:36.855Z,1.98
2023-03-24T15:30:39.369Z,1.83
2023-03-24T15:31:42.069Z,2.13
2023-03-24T15:32:49.308Z,2.70
2023-03-24T15:33:53.297Z,1.85
2023-03-24T15:34:58.975Z,2.00
2023-03-24T15:36:03.952Z,2.08
2023-03-24T15:37:41.455Z,1.65
2023-03-24T15:38:49.983Z,2.17
2023-03-24T15:40:01.770Z,1.75
2023-03-24T15:41:10.323Z,2.42
2023-03-24T15:42:18.855Z,2.20
2023-03-24T15:43:22.391Z,1.80
2023-03-24T15:44:28.167Z,1.90
2023-03-24T15:45:31.700Z,1.98
2023-03-24T15:46:34.286Z,2.40
2023-03-24T15:47:38.754Z,2.50
2023-03-24T15:48:41.251Z,2.25
2023-03-24T15:50:00.909Z,2.38
2023-03-24T15:51:05.371Z,2.15
2023-03-24T15:52:26.707Z,2.72
2023-03-24T15:53:44.636Z,3.47
2023-03-24T15:54:47.705Z,3.33
2023-03-24T15:56:04.693Z,3.15
2023-03-24T15:57:20.318Z,3.08
2023-03-24T15:58:23.914Z,3.35
2023-03-24T15:59:33.709Z,2.80
2023-03-24T16:00:40.054Z,3.90
2023-03-24T16:01:45.159Z,4.03
2023-03-24T16:02:52.333Z,4.07
2023-03-24T16:03:55.307Z,3.53
2023-03-24T16:06:15.070Z,3.35
2023-03-24T16:07:30.660Z,3.50
2023-03-24T16:08:39.187Z,3.72
2023-03-24T16:09:41.884Z,3.53
2023-03-24T16:11:00.006Z,3.65
2023-03-24T16:12:03.472Z,3.55
2023-03-24T16:13:15.063Z,3.65
2023-03-24T16:15:27.676Z,4.25
2023-03-24T16:16:30.861Z,4.25
2023-03-24T16:17:33.640Z,3.60
2023-03-24T16:18:37.996Z,3.38
2023-03-24T16:19:40.637Z,4.20
2023-03-24T16:20:43.159Z,3.58
2023-03-24T16:21:45.979Z,3.95
2023-03-24T16:22:48.456Z,3.75
2023-03-24T16:23:53.411Z,3.38
2023-03-24T16:24:56.004Z,3.90
2023-03-24T16:25:58.642Z,3.38
2023-03-24T16:27:01.166Z,3.83
2023-03-24T16:28:04.426Z,4.20
2023-03-24T16:29:21.742Z,3.58
2023-03-24T16:30:25.966Z,4.13
2023-03-24T16:31:32.031Z,3.83
2023-03-24T16:32:34.595Z,4.15
2023-03-24T16:33:37.079Z,4.47
2023-03-24T16:34:39.597Z,3.97
2023-03-24T16:35:42.201Z,4.57
2023-03-24T16:36:46.494Z,4.90
2023-03-24T16:37:49.478Z,5.47
2023-03-24T16:38:52.238Z,4.97
2023-03-24T16:39:54.718Z,4.85
2023-03-24T16:40:57.798Z,5.78
2023-03-24T16:42:00.437Z,6.80
2023-03-24T16:43:03.008Z,6.00
2023-03-24T16:44:05.650Z,6.70
2023-03-24T16:45:08.847Z,6.60
2023-03-24T16:46:37.832Z,7.05
2023-03-24T16:47:40.502Z,6.93
2023-03-24T16:48:44.070Z,6.72
2023-03-24T16:49:46.693Z,7.35
2023-03-24T16:50:53.506Z,6.88
2023-03-24T16:51:56.723Z,4.93
2023-03-24T16:52:59.551Z,4.45
2023-03-24T16:54:02.146Z,4.85
2023-03-24T16:55:04.955Z,5.07
2023-03-24T16:56:08.376Z,5.50
2023-03-24T16:57:10.917Z,4.72
2023-03-24T16:58:14.849Z,5.30
2023-03-24T16:59:17.289Z,4.50
2023-03-24T17:00:20.107Z,4.93
2023-03-24T17:01:38.173Z,4.78
2023-03-24T17:02:46.361Z,4.72
2023-03-24T17:03:50.017Z,7.07
2023-03-24T17:04:53.158Z,8.65
2023-03-24T17:05:57.607Z,9.38
2023-03-24T17:07:00.183Z,9.80
2023-03-24T17:08:02.790Z,10.95
2023-03-24T17:09:08.461Z,8.02
2023-03-24T17:10:11.124Z,8.00
2023-03-24T17:11:14.043Z,7.30
2023-03-24T17:12:16.523Z,8.80
2023-03-24T17:13:24.319Z,6.07
2023-03-24T17:14:26.886Z,6.03
2023-03-24T17:15:31.192Z,7.47
2023-03-24T17:16:36.726Z,5.47
2023-03-24T17:17:39.486Z,5.05
2023-03-24T17:18:42.688Z,5.88
2023-03-24T17:19:47.822Z,4.55
2023-03-24T17:20:51.919Z,5.03
2023-03-24T17:22:02.631Z,5.20
2023-03-24T17:24:10.967Z,3.92
2023-03-24T17:25:15.798Z,4.45
2023-03-24T17:26:18.441Z,4.68
2023-03-24T17:27:21.396Z,5.40
2023-03-24T17:28:23.940Z,4.53
2023-03-24T17:29:26.561Z,3.95
2023-03-24T17:30:29.953Z,3.92
2023-03-24T17:31:33.283Z,5.07
2023-03-24T17:32:35.932Z,4.22
2023-03-24T17:33:38.533Z,4.30
2023-03-24T17:34:45.722Z,4.47
2023-03-24T17:35:48.471Z,4.20
2023-03-24T17:36:51.927Z,4.15
2023-03-24T17:37:54.631Z,3.80
2023-03-24T17:38:57.292Z,4.75
2023-03-24T17:40:01.124Z,4.80
2023-03-24T17:41:05.017Z,6.07
2023-03-24T17:42:07.457Z,5.82
2023-03-24T17:43:09.987Z,5.47
2023-03-24T17:44:12.671Z,5.65
2023-03-24T17:45:17.996Z,4.93
2023-03-24T17:46:21.007Z,5.35
2023-03-24T17:47:23.575Z,5.75
2023-03-24T17:48:27.459Z,5.88
2023-03-24T17:49:30.766Z,4.72
2023-03-24T17:50:33.822Z,4.72
2023-03-24T17:51:36.461Z,4.55
2023-03-24T17:52:47.787Z,4.50
2023-03-24T17:53:50.806Z,4.80
2023-03-24T17:54:53.236Z,6.25
2023-03-24T17:56:01.774Z,7.20
2023-03-24T17:57:04.232Z,6.28
2023-03-24T17:58:06.818Z,5.90
2023-03-24T17:59:09.495Z,5.72
2023-03-24T18:00:14.964Z,7.38
2023-03-24T18:01:18.453Z,6.63
2023-03-24T18:02:21.395Z,6.97
2023-03-24T18:03:25.976Z,7.05
2023-03-24T18:04:29.093Z,8.38
2023-03-24T18:05:33.541Z,7.45
2023-03-24T18:06:38.608Z,6.75
2023-03-24T18:07:43.114Z,8.38
2023-03-24T18:08:45.887Z,7.85
2023-03-24T18:09:49.227Z,6.65
2023-03-24T18:10:51.916Z,7.78
2023-03-24T18:11:55.049Z,7.10
2023-03-24T18:12:57.547Z,7.25
2023-03-24T18:14:00.272Z,6.63
2023-03-24T18:15:03.966Z,6.55
2023-03-24T18:16:20.039Z,5.88
2023-03-24T18:17:24.147Z,6.07
2023-03-24T18:18:27.552Z,5.35
2023-03-24T18:19:30.609Z,5.15
2023-03-24T18:20:33.518Z,5.75
2023-03-24T18:21:36.784Z,5.57
2023-03-24T18:22:41.185Z,6.03
2023-03-24T18:23:44.505Z,5.93
2023-03-24T18:24:47.137Z,5.85
2023-03-24T18:25:59.963Z,4.90
2023-03-24T18:27:03.894Z,6.20
2023-03-24T18:28:07.505Z,5.80
2023-03-24T18:29:10.199Z,5.97
2023-03-24T18:30:16.346Z,5.63
2023-03-24T18:31:20.808Z,6.30
2023-03-24T18:32:23.582Z,6.50
2023-03-24T18:33:26.398Z,6.00
2023-03-24T18:34:30.841Z,5.82
2023-03-24T18:35:35.275Z,6.50
2023-03-24T18:36:37.911Z,6.03
2023-03-24T18:37:40.524Z,6.10
2023-03-24T18:38:43.670Z,5.75
2023-03-24T18:39:46.276Z,5.68
2023-03-24T18:40:58.046Z,6.43
2023-03-24T18:42:00.704Z,6.53
2023-03-24T18:43:03.198Z,5.68
2023-03-24T18:44:08.346Z,5.68
2023-03-24T18:45:18.432Z,5.28
2023-03-24T18:46:21.742Z,5.22
2023-03-24T18:47:24.906Z,5.25
2023-03-24T18:48:28.675Z,5.35
2023-03-24T18:49:31.714Z,5.22
2023-03-24T18:50:34.136Z,4.95
2023-03-24T18:51:36.674Z,4.82
2023-03-24T18:52:39.889Z,4.70
2023-03-24T18:53:42.338Z,4.35
2023-03-24T18:54:45.827Z,6.13
2023-03-24T18:55:50.396Z,5.65
2023-03-24T18:56:53.155Z,5.72
2023-03-24T18:57:55.680Z,5.47
2023-03-24T18:58:58.238Z,5.43
2023-03-24T19:00:01.299Z,5.63
2023-03-24T19:01:07.029Z,5.72
2023-03-24T19:02:11.707Z,4.90
2023-03-24T19:03:15.345Z,5.82
2023-03-24T19:04:18.079Z,4.90
2023-03-24T19:05:20.587Z,5.72
2023-03-24T19:06:26.405Z,5.15
2023-03-24T19:07:29.351Z,6.25
2023-03-24T19:08:33.232Z,5.45
2023-03-24T19:09:35.891Z,4.95
2023-03-24T19:10:38.321Z,5.30
2023-03-24T19:11:43.448Z,4.90
2023-03-24T19:12:46.428Z,5.93
2023-03-24T19:13:50.047Z,6.00
2023-03-24T19:14:53.689Z,6.32
2023-03-24T19:15:56.388Z,5.70
2023-03-24T19:17:01.834Z,6.32
2023-03-24T19:18:04.556Z,6.55
2023-03-24T19:19:07.998Z,7.10
2023-03-24T19:20:11.152Z,6.28
2023-03-24T19:21:13.852Z,6.80
2023-03-24T19:22:21.639Z,6.65
2023-03-24T19:23:26.392Z,6.68
2023-03-24T19:24:30.343Z,6.38
2023-03-24T19:25:34.190Z,7.07
2023-03-24T19:26:36.764Z,7.65
2023-03-24T19:27:39.390Z,6.50
2023-03-24T19:28:42.155Z,6.85
2023-03-24T19:29:44.783Z,6.57
2023-03-24T19:30:47.819Z,6.38
2023-03-24T19:31:50.345Z,6.93
2023-03-24T19:32:52.917Z,6.93
2023-03-24T19:33:56.460Z,6.57
2023-03-24T19:34:59.082Z,6.47
2023-03-24T19:36:01.938Z,5.97
2023-03-24T19:37:05.578Z,5.72
2023-03-24T19:38:08.818Z,6.20
2023-03-24T19:39:14.903Z,5.82
2023-03-24T19:40:21.221Z,6.70
2023-03-24T19:41:26.443Z,5.13
2023-03-24T19:42:32.708Z,5.70
2023-03-24T19:43:36.875Z,5.60
2023-03-24T19:44:40.314Z,5.13
2023-03-24T19:45:43.251Z,5.57
2023-03-24T19:46:45.905Z,5.80
2023-03-24T19:47:48.550Z,5.97
2023-03-24T19:48:51.183Z,6.55
2023-03-24T19:49:56.916Z,6.90
2023-03-24T19:50:59.531Z,6.85
2023-03-24T19:52:02.355Z,7.05
2023-03-24T19:53:05.083Z,8.05
2023-03-24T19:54:08.172Z,10.18
2023-03-24T19:55:10.916Z,12.77
2023-03-24T19:56:17.446Z,14.70
2023-03-24T19:57:20.316Z,12.82
2023-03-24T19:58:27.794Z,12.10
2023-03-24T19:59:30.374Z,12.00
2023-03-24T20:00:33.283Z,10.75
2023-03-24T20:01:36.682Z,9.88
2023-03-24T20:02:39.349Z,8.77
2023-03-24T20:03:42.356Z,8.38
2023-03-24T20:04:46.736Z,7.43